RKPK

Gimhae International Airport

Busan, South Korea
METAR RKPK 210100Z 34008KT CAVOK 00/M13 Q1023
Observed Flight Rules
Jan-21 @ 01:00 UTC (53 minutes ago) Visual Flight Rules
Wind Visibility Clouds
340° at 8 knots 10,000+ meters
  • Clear skies
Temperatures Readings
Current 0°C / 32°F
Dewpoint -13°C / 9°F
Humidity 37%
Altimeter 30.21" Hg
Pressure 1022.92 hPa
Elevation 15
METAR RKPK 210100Z 34008KT CAVOK 00/M13 Q1023
Observed Flight Rules
Jan-21 @ 01:00 UTC
(53 minutes ago)
VFR
Wind Visibility
340° at 8 knots 10,000+ meters
Clouds
  • Clear skies
Temperature Dewpoint
0°C / 32°F -13°C / 9°F
Humidity Altimeter Pressure
37% 30.21" Hg 1022.92 hPa